Time;durP1;ratioP1;P1;durP2;ratioP2;P2;SDS_P1;SDS_P2;PMS_P1;PMS_P2;Temp;Humidity;BMP_temperature;BMP_pressure;BME280_temperature;BME280_humidity;BME280_pressure;Samples;Min_cycle;Max_cycle;Signal;HPM_P1;HPM_P2
2023/12/02 00:05:09;;;;;;;4.40;2.90;;;;;;;18.34;31.71;100915.50;16107152;19;130192;-46
2023/12/02 00:10:31;;;;;;;5.55;3.47;;;;;;;18.29;31.59;100916.22;16105839;19;131560;-47
2023/12/02 00:15:53;;;;;;;6.85;3.72;;;;;;;18.24;31.24;100906.97;16104758;19;132228;-46
2023/12/02 00:21:15;;;;;;;6.30;3.92;;;;;;;18.22;31.14;100920.22;16104140;19;130890;-46
2023/12/02 00:26:38;;;;;;;6.18;3.17;;;;;;;18.19;31.52;100926.28;16099832;19;129852;-49
2023/12/02 00:32:00;;;;;;;5.80;3.90;;;;;;;18.13;31.15;100937.22;16104340;19;130488;-48
2023/12/02 00:37:21;;;;;;;5.45;3.72;;;;;;;18.11;31.31;100935.78;16102764;19;131053;-47
2023/12/02 00:42:43;;;;;;;6.65;4.30;;;;;;;18.07;31.11;100929.03;16103751;19;131115;-44
2023/12/02 00:48:06;;;;;;;5.55;3.78;;;;;;;18.02;30.76;100927.00;16098425;19;130827;-46
2023/12/02 00:53:28;;;;;;;4.60;3.58;;;;;;;17.99;31.27;100922.81;16101167;19;129740;-46
2023/12/02 00:58:50;;;;;;;5.88;3.28;;;;;;;17.98;31.28;100920.25;16095768;19;130331;-47
2023/12/02 01:04:11;;;;;;;5.60;3.50;;;;;;;17.95;31.04;100920.75;16099448;19;129584;-44
2023/12/02 01:09:34;;;;;;;5.53;3.50;;;;;;;17.92;31.05;100935.91;16097828;19;132008;-49
2023/12/02 01:14:55;;;;;;;5.72;3.90;;;;;;;17.89;31.07;100930.03;16101103;19;130635;-48
2023/12/02 01:20:17;;;;;;;5.90;3.85;;;;;;;17.85;30.69;100933.25;16099256;19;131541;-46
2023/12/02 01:25:40;;;;;;;5.78;4.25;;;;;;;17.83;30.81;100929.91;16101578;19;130062;-44
2023/12/02 01:31:02;;;;;;;5.85;3.47;;;;;;;17.79;30.82;100923.16;16099151;19;130000;-47
2023/12/02 01:36:24;;;;;;;5.50;3.67;;;;;;;17.78;31.19;100927.00;16102516;19;129678;-48
2023/12/02 01:41:46;;;;;;;5.68;3.60;;;;;;;17.76;30.78;100948.53;16097261;19;130386;-49
2023/12/02 01:47:08;;;;;;;4.57;3.25;;;;;;;17.73;30.86;100957.31;16110518;19;129422;-45
2023/12/02 01:52:30;;;;;;;4.63;3.20;;;;;;;17.70;31.18;100963.34;16109684;19;129705;-45
2023/12/02 01:57:52;;;;;;;4.72;3.00;;;;;;;17.68;31.30;100965.50;16110110;19;130458;-44
2023/12/02 02:03:14;;;;;;;4.65;3.58;;;;;;;17.66;31.28;100959.38;16108314;19;130007;-46
2023/12/02 02:08:37;;;;;;;4.13;3.15;;;;;;;17.65;31.39;100965.97;16113324;19;129413;-44
2023/12/02 02:13:59;;;;;;;4.60;3.47;;;;;;;17.62;31.06;100960.91;16111000;19;130826;-44
2023/12/02 02:19:21;;;;;;;4.93;3.38;;;;;;;17.59;31.15;100956.72;16111134;19;130237;-46
2023/12/02 02:24:43;;;;;;;4.00;2.95;;;;;;;17.57;31.11;100963.56;16111819;19;134344;-49
2023/12/02 02:30:06;;;;;;;3.28;2.88;;;;;;;17.56;31.08;100968.25;16110782;19;131040;-47
2023/12/02 02:35:31;;;;;;;3.17;2.88;;;;;;;17.53;30.95;100974.25;16109091;19;130416;-48
2023/12/02 02:40:53;;;;;;;6.37;3.20;;;;;;;17.51;31.16;100977.22;16114787;19;129975;-50
2023/12/02 02:46:16;;;;;;;5.32;3.47;;;;;;;17.49;31.13;100978.56;16105368;19;131429;-49
2023/12/02 02:51:38;;;;;;;4.20;3.15;;;;;;;17.46;30.99;100977.13;16114714;19;135813;-44
2023/12/02 02:57:00;;;;;;;5.30;3.38;;;;;;;17.45;31.01;100980.97;16107422;19;130392;-48
2023/12/02 03:02:21;;;;;;;3.42;2.83;;;;;;;17.43;30.81;100979.50;16113307;19;132564;-44
2023/12/02 03:07:43;;;;;;;3.85;3.17;;;;;;;17.40;31.11;100986.34;16115086;19;132635;-47
2023/12/02 03:13:05;;;;;;;6.05;3.38;;;;;;;17.39;31.25;100995.72;16115674;19;130055;-44
2023/12/02 03:18:27;;;;;;;3.75;3.10;;;;;;;17.37;31.09;101006.16;16114907;19;130816;-45
2023/12/02 03:23:50;;;;;;;3.72;3.00;;;;;;;17.37;31.15;101006.16;16116896;19;129916;-48
2023/12/02 03:29:12;;;;;;;4.28;3.15;;;;;;;17.34;30.96;101001.97;16110920;19;131322;-44
2023/12/02 03:34:34;;;;;;;4.40;3.10;;;;;;;17.32;30.92;101012.41;16110322;19;131095;-46
2023/12/02 03:39:56;;;;;;;3.85;3.05;;;;;;;17.31;31.12;101018.19;16109955;19;129363;-47
2023/12/02 03:45:18;;;;;;;3.13;2.60;;;;;;;17.30;30.86;101019.25;16113721;19;135076;-48
2023/12/02 03:50:40;;;;;;;4.63;2.83;;;;;;;17.27;31.02;101005.91;16110782;19;133370;-47
2023/12/02 03:56:02;;;;;;;4.30;3.17;;;;;;;17.23;31.01;101003.59;16112469;19;130977;-46
2023/12/02 04:01:25;;;;;;;2.85;2.50;;;;;;;17.23;30.92;101009.13;16104876;19;131564;-44
2023/12/02 04:06:46;;;;;;;4.68;2.63;;;;;;;17.21;31.33;101014.06;16105215;19;131068;-53
2023/12/02 04:12:08;;;;;;;3.75;2.80;;;;;;;17.19;31.13;101016.22;16105681;19;131264;-54
2023/12/02 04:17:31;;;;;;;2.85;2.50;;;;;;;17.18;31.47;101028.34;16104011;19;130426;-54
2023/12/02 04:22:53;;;;;;;4.10;2.58;;;;;;;17.16;31.34;101036.03;16105772;19;130487;-54
2023/12/02 04:28:16;;;;;;;2.83;2.38;;;;;;;17.15;31.10;101036.28;16107108;19;129666;-53
2023/12/02 04:33:38;;;;;;;2.90;2.60;;;;;;;17.14;31.62;101038.19;16098661;19;133913;-50
2023/12/02 04:39:03;;;;;;;2.10;1.90;;;;;;;17.12;31.21;101034.81;16098327;19;129735;-46
2023/12/02 04:44:25;;;;;;;3.10;2.60;;;;;;;17.11;31.20;101029.53;16098731;19;130046;-44
2023/12/02 04:49:47;;;;;;;2.72;2.10;;;;;;;17.10;31.27;101025.94;16101291;19;131204;-44
2023/12/02 04:55:09;;;;;;;2.90;2.33;;;;;;;17.08;31.75;101042.72;16098852;19;131191;-45
2023/12/02 05:00:32;;;;;;;2.25;2.05;;;;;;;17.08;31.71;101036.38;16100684;19;130160;-46
2023/12/02 05:05:54;;;;;;;3.15;2.00;;;;;;;17.06;31.41;101052.34;16101126;19;132210;-49
2023/12/02 05:11:20;;;;;;;1.70;1.60;;;;;;;17.05;31.54;101061.72;16106701;19;129407;-44
2023/12/02 05:16:42;;;;;;;2.33;1.73;;;;;;;17.04;31.77;101076.59;16103659;19;130547;-48
2023/12/02 05:22:05;;;;;;;2.20;1.90;;;;;;;17.02;31.52;101079.59;16124640;19;129938;-45
2023/12/02 05:27:26;;;;;;;2.25;1.75;;;;;;;17.01;31.79;101088.09;16118838;19;129909;-52
2023/12/02 05:32:51;;;;;;;2.55;2.35;;;;;;;17.00;31.63;101091.94;16118892;19;129528;-45
2023/12/02 05:38:13;;;;;;;2.40;1.75;;;;;;;16.99;31.69;101095.78;16113631;19;129552;-49
2023/12/02 05:43:35;;;;;;;2.67;1.85;;;;;;;16.97;31.86;101101.56;16117209;19;131502;-47
2023/12/02 05:48:57;;;;;;;2.03;1.83;;;;;;;16.96;31.94;101096.28;16112880;19;129675;-48
2023/12/02 05:54:19;;;;;;;2.53;1.90;;;;;;;16.95;31.65;101111.16;16117775;19;130700;-44
2023/12/02 05:59:41;;;;;;;1.88;1.70;;;;;;;16.94;32.11;101121.34;16117845;19;130585;-47
2023/12/02 06:05:03;;;;;;;1.92;1.73;;;;;;;16.93;31.74;101119.66;16117550;19;134761;-45
2023/12/02 06:10:25;;;;;;;2.60;2.15;;;;;;;16.91;31.98;101133.72;16108861;19;130190;-45
2023/12/02 06:15:47;;;;;;;2.00;1.70;;;;;;;16.92;32.03;101129.88;16118534;19;129843;-44
2023/12/02 06:21:11;;;;;;;2.10;1.90;;;;;;;16.92;31.92;101118.84;16115793;19;132683;-49
2023/12/02 06:26:33;;;;;;;2.10;1.90;;;;;;;16.91;31.72;101130.97;16115350;19;131192;-44
2023/12/02 06:31:55;;;;;;;2.08;1.70;;;;;;;16.91;31.74;101133.72;16106596;19;131248;-45
2023/12/02 06:37:17;;;;;;;2.53;1.70;;;;;;;16.95;32.01;101139.63;16113257;19;131149;-48
2023/12/02 06:42:39;;;;;;;2.20;1.80;;;;;;;17.21;31.85;101144.03;16120471;19;130239;-49
2023/12/02 06:48:01;;;;;;;1.88;1.38;;;;;;;17.65;31.31;101148.59;16108293;19;131132;-48
2023/12/02 06:53:23;;;;;;;1.40;1.30;;;;;;;18.13;30.85;101150.41;16111440;19;129657;-43
2023/12/02 06:58:45;;;;;;;3.13;1.50;;;;;;;18.45;30.75;101147.38;16096878;19;131617;-46
2023/12/02 07:04:07;;;;;;;1.55;1.25;;;;;;;18.62;30.49;101160.50;16106487;19;131702;-43
2023/12/02 07:09:29;;;;;;;2.35;1.23;;;;;;;18.79;30.43;101165.31;16104861;19;129719;-44
2023/12/02 07:14:51;;;;;;;4.15;1.15;;;;;;;19.16;30.08;101173.38;16107035;19;131810;-48
2023/12/02 07:20:14;;;;;;;1.95;1.20;;;;;;;19.60;30.19;101173.75;16107120;19;131213;-42
2023/12/02 07:25:36;;;;;;;1.45;1.10;;;;;;;19.95;29.58;101186.63;16109954;19;131580;-45
2023/12/02 07:30:58;;;;;;;2.45;1.42;;;;;;;20.08;29.60;101179.97;16105684;19;132958;-42
2023/12/02 07:36:20;;;;;;;2.13;1.40;;;;;;;20.09;29.47;101186.34;16101474;19;130721;-46
2023/12/02 07:41:45;;;;;;;3.95;1.05;;;;;;;20.03;29.26;101204.03;16107808;19;129460;-49
2023/12/02 07:47:07;;;;;;;5.27;1.20;;;;;;;19.87;30.01;101195.38;16108554;19;130429;-53
2023/12/02 07:52:29;;;;;;;1.20;1.00;;;;;;;19.70;29.92;101200.88;16108050;19;130991;-43
2023/12/02 07:57:51;;;;;;;1.48;1.10;;;;;;;19.52;30.30;101210.22;16108672;19;130918;-49
2023/12/02 08:03:13;;;;;;;3.08;1.58;;;;;;;19.36;30.33;101220.97;16108768;19;130799;-48
2023/12/02 08:08:36;;;;;;;10.85;1.50;;;;;;;19.21;30.97;101238.16;16109735;19;131118;-51
2023/12/02 08:13:57;;;;;;;4.60;1.73;;;;;;;19.30;30.90;101246.09;16103212;19;129741;-43
2023/12/02 08:19:19;;;;;;;4.80;1.70;;;;;;;19.53;30.11;101261.84;16108837;19;129357;-45
2023/12/02 08:24:42;;;;;;;2.08;1.25;;;;;;;19.86;29.95;101253.94;16105939;19;129776;-48
2023/12/02 08:30:07;;;;;;;1.40;1.30;;;;;;;20.23;29.92;101259.13;16099939;19;129934;-44
2023/12/02 08:35:29;;;;;;;1.77;1.10;;;;;;;20.52;29.91;101268.25;16099167;19;131366;-46
2023/12/02 08:40:51;;;;;;;2.30;1.00;;;;;;;20.63;29.87;101262.88;16101637;19;129986;-44
2023/12/02 08:46:16;;;;;;;7.10;1.05;;;;;;;20.57;29.73;101275.84;16100841;19;130596;-47
2023/12/02 08:51:39;;;;;;;4.95;1.75;;;;;;;20.42;29.82;101290.31;16104187;19;131899;-44
2023/12/02 08:57:01;;;;;;;7.22;1.80;;;;;;;20.24;30.26;101278.31;16117006;19;131194;-47
2023/12/02 09:02:23;;;;;;;4.07;1.83;;;;;;;20.05;30.13;101290.72;16119948;19;134707;-42
2023/12/02 09:07:45;;;;;;;7.35;2.15;;;;;;;19.87;30.06;101273.09;16117843;19;131045;-44
2023/12/02 09:13:23;;;;;;;6.15;1.85;;;;;;;19.76;30.24;101285.09;16117845;19;130468;-45
2023/12/02 09:18:46;;;;;;;5.63;1.60;;;;;;;19.57;30.67;101274.13;16117543;19;130890;-44
2023/12/02 09:24:34;;;;;;;3.72;1.83;;;;;;;19.51;31.17;101291.78;16121083;19;131142;-45
2023/12/02 09:29:56;;;;;;;9.02;1.95;;;;;;;19.63;31.46;101309.25;16114457;19;131463;-48
2023/12/02 09:35:19;;;;;;;3.55;1.92;;;;;;;20.06;31.19;101320.19;16114328;19;131275;-43
2023/12/02 09:40:51;;;;;;;9.88;2.10;;;;;;;20.56;30.62;101319.47;16117785;19;130275;-46
2023/12/02 09:46:33;;;;;;;7.18;1.70;;;;;;;21.09;30.54;101324.84;16111086;19;132444;-45
2023/12/02 09:52:26;;;;;;;3.88;1.80;;;;;;;21.52;30.17;101325.25;16109046;19;131910;-45
2023/12/02 09:57:55;;;;;;;3.60;1.60;;;;;;;21.89;30.06;101321.00;16115066;19;130393;-44
2023/12/02 10:03:32;;;;;;;4.38;1.52;;;;;;;22.15;29.65;101322.16;16116894;19;129769;-44
2023/12/02 10:09:08;;;;;;;6.57;1.80;;;;;;;22.26;29.01;101329.56;16115496;19;131519;-44
2023/12/02 10:14:33;;;;;;;3.70;1.87;;;;;;;22.21;29.09;101326.72;16112063;19;131750;-44
2023/12/02 10:20:00;;;;;;;11.30;1.75;;;;;;;22.08;29.76;101330.72;16111070;19;130447;-46
2023/12/02 10:25:28;;;;;;;6.95;1.75;;;;;;;21.88;29.94;101333.25;16109519;19;129723;-45
2023/12/02 10:30:51;;;;;;;6.47;1.65;;;;;;;21.64;30.10;101358.56;16105759;19;131533;-43
2023/12/02 10:36:18;;;;;;;3.65;1.65;;;;;;;21.36;30.16;101360.31;16100913;19;130105;-46
2023/12/02 10:41:45;;;;;;;7.65;1.85;;;;;;;21.12;30.37;101357.72;16108167;19;130646;-48
2023/12/02 10:47:08;;;;;;;6.78;1.50;;;;;;;20.86;31.02;101346.16;16110003;19;130818;-45
2023/12/02 10:52:31;;;;;;;10.70;2.53;;;;;;;20.66;31.24;101345.78;16112531;19;130075;-47
2023/12/02 10:57:58;;;;;;;4.22;1.80;;;;;;;20.45;31.30;101349.00;16110347;19;129714;-43
2023/12/02 11:03:34;;;;;;;9.75;2.38;;;;;;;20.29;31.41;101342.31;16114975;19;129791;-46
2023/12/02 11:09:02;;;;;;;7.90;2.20;;;;;;;20.16;31.77;101353.72;16110377;19;129628;-48
2023/12/02 11:14:26;;;;;;;8.30;1.98;;;;;;;20.17;31.32;101344.31;16105725;19;130044;-43
2023/12/02 11:19:58;;;;;;;5.10;2.13;;;;;;;20.31;31.36;101338.47;16106318;19;131146;-45
2023/12/02 11:25:54;;;;;;;6.70;1.70;;;;;;;20.69;31.40;101328.56;16110733;19;129925;-44
2023/12/02 11:31:41;;;;;;;12.45;1.98;;;;;;;21.08;30.76;101348.19;16106206;19;130981;-46
2023/12/02 11:37:16;;;;;;;8.05;2.80;;;;;;;21.39;29.81;101347.84;16106221;19;133275;-46
2023/12/02 11:43:05;;;;;;;6.10;1.88;;;;;;;21.70;29.26;101353.91;16106193;19;134602;-44
2023/12/02 11:48:58;;;;;;;8.52;2.47;;;;;;;21.80;29.39;101352.06;16102994;19;130659;-45
2023/12/02 11:54:45;;;;;;;6.20;2.00;;;;;;;21.74;29.47;101355.03;16099648;19;131351;-44
2023/12/02 12:00:11;;;;;;;7.82;2.15;;;;;;;21.58;29.62;101354.00;16102482;19;131036;-46
2023/12/02 12:05:42;;;;;;;6.50;2.08;;;;;;;21.40;29.51;101352.31;16108688;19;129695;-45
2023/12/02 12:11:08;;;;;;;7.50;1.95;;;;;;;21.20;30.17;101357.28;16105262;19;130439;-46
2023/12/02 12:16:30;;;;;;;3.33;1.70;;;;;;;21.01;30.20;101358.66;16108529;19;130290;-48
2023/12/02 12:22:03;;;;;;;6.13;2.40;;;;;;;20.81;30.52;101362.75;16103899;19;131004;-47
2023/12/02 12:27:25;;;;;;;11.13;2.55;;;;;;;20.59;30.40;101363.44;16096877;19;131467;-44
2023/12/02 12:32:49;;;;;;;13.27;2.30;;;;;;;20.59;31.23;101363.44;16103187;19;131371;-46
2023/12/02 12:38:11;;;;;;;9.90;3.13;;;;;;;20.78;31.56;101370.75;16103271;19;131097;-46
2023/12/02 12:43:37;;;;;;;11.38;2.20;;;;;;;21.01;31.38;101376.16;16104408;19;131622;-49
2023/12/02 12:49:03;;;;;;;10.43;2.45;;;;;;;21.08;31.56;101373.22;16098548;19;129944;-47
2023/12/02 12:54:33;;;;;;;3.70;1.83;;;;;;;21.02;31.98;101377.03;16090783;19;131652;-45
2023/12/02 12:59:59;;;;;;;6.13;2.35;;;;;;;20.93;32.38;101389.63;16105058;19;129427;-45
2023/12/02 13:05:26;;;;;;;11.32;2.53;;;;;;;20.78;32.55;101388.28;16096254;19;131256;-48
2023/12/02 13:10:53;;;;;;;7.63;2.50;;;;;;;20.66;32.91;101390.25;16092374;19;130657;-46
2023/12/02 13:16:16;;;;;;;3.90;2.10;;;;;;;20.58;33.59;101384.00;16098351;19;129688;-49
2023/12/02 13:21:43;;;;;;;6.93;2.38;;;;;;;20.47;33.84;101398.78;16098033;19;130213;-48
2023/12/02 13:27:13;;;;;;;3.50;2.10;;;;;;;20.40;34.06;101403.66;16098906;19;130821;-46
2023/12/02 13:32:43;;;;;;;11.55;2.17;;;;;;;20.37;34.35;101409.69;16098749;19;131147;-46
2023/12/02 13:38:28;;;;;;;5.88;2.40;;;;;;;20.29;34.77;101417.34;16101127;19;130283;-47
2023/12/02 13:43:52;;;;;;;3.70;2.22;;;;;;;20.19;34.45;101406.00;16109447;19;130676;-44
2023/12/02 13:49:27;;;;;;;6.75;1.92;;;;;;;20.11;34.78;101409.16;16108991;19;129727;-43
2023/12/02 13:55:09;;;;;;;4.47;1.63;;;;;;;20.02;35.31;101424.50;16116318;19;129829;-45
2023/12/02 14:01:04;;;;;;;8.18;2.10;;;;;;;19.96;35.26;101427.13;16115969;19;129441;-48
2023/12/02 14:06:45;;;;;;;9.75;2.35;;;;;;;19.89;35.86;101434.75;16113633;19;129792;-46
2023/12/02 14:12:21;;;;;;;5.85;2.65;;;;;;;19.82;36.04;101437.66;16109483;19;132394;-49
2023/12/02 14:17:57;;;;;;;5.78;2.05;;;;;;;19.77;35.79;101439.47;16113720;19;129568;-45
2023/12/02 14:23:31;;;;;;;;;;;;;;;19.71;35.89;101448.75;16112988;19;129835;-48
2023/12/02 14:29:37;;;;;;;5.97;2.10;;;;;;;19.70;36.35;101450.69;16117231;19;129793;-45
2023/12/02 14:35:10;;;;;;;7.18;2.15;;;;;;;19.66;36.25;101457.81;16114898;19;130160;-44
2023/12/02 14:40:54;;;;;;;4.65;2.00;;;;;;;19.63;36.12;101459.13;16109366;19;129891;-49
2023/12/02 14:46:16;;;;;;;4.35;2.30;;;;;;;19.60;35.90;101467.94;16118113;19;129639;-53
2023/12/02 14:51:38;;;;;;;4.70;2.20;;;;;;;19.61;36.35;101475.19;16109110;19;131253;-52
2023/12/02 14:57:20;;;;;;;3.10;1.60;;;;;;;19.78;36.52;101480.88;16113386;19;129794;-52
2023/12/02 15:02:50;;;;;;;2.85;1.70;;;;;;;19.94;36.34;101489.56;16117585;19;131089;-55
2023/12/02 15:08:16;;;;;;;2.92;1.90;;;;;;;20.10;35.98;101496.34;16117620;19;129903;-50
2023/12/02 15:13:39;;;;;;;3.10;1.73;;;;;;;20.27;36.31;101502.00;16109249;19;131395;-52
2023/12/02 15:19:11;;;;;;;12.68;2.00;;;;;;;20.41;36.28;101513.72;16095741;19;130822;-51
2023/12/02 15:24:35;;;;;;;6.07;1.70;;;;;;;20.53;35.76;101519.25;16097020;19;132007;-50
2023/12/02 15:29:57;;;;;;;5.13;1.88;;;;;;;20.63;35.73;101530.56;16090498;19;130924;-52
2023/12/02 15:35:20;;;;;;;3.55;1.90;;;;;;;20.73;36.12;101529.97;16093602;19;131714;-51
2023/12/02 15:40:43;;;;;;;3.65;1.70;;;;;;;20.80;35.83;101533.47;16095869;19;130937;-49
2023/12/02 15:46:05;;;;;;;3.80;1.73;;;;;;;20.86;36.02;101538.06;16095769;19;129650;-52
2023/12/02 15:51:30;;;;;;;5.53;1.70;;;;;;;20.88;35.47;101549.78;16090285;19;132370;-48
2023/12/02 15:56:55;;;;;;;6.00;1.90;;;;;;;20.93;35.87;101567.66;16088977;19;130989;-52
2023/12/02 16:02:17;;;;;;;3.60;1.60;;;;;;;20.96;35.69;101568.03;16092031;19;132212;-50
2023/12/02 16:07:40;;;;;;;5.45;1.90;;;;;;;20.95;35.77;101583.03;16095092;19;130241;-53
2023/12/02 16:13:02;;;;;;;4.50;2.22;;;;;;;20.89;35.73;101590.41;16094092;19;130702;-52
2023/12/02 16:18:24;;;;;;;5.53;3.25;;;;;;;20.79;35.21;101592.13;16091967;19;131964;-52
2023/12/02 16:23:47;;;;;;;6.68;3.47;;;;;;;20.68;34.99;101596.56;16090026;19;130838;-53
2023/12/02 16:29:09;;;;;;;7.65;3.80;;;;;;;20.54;35.05;101607.97;16082159;19;131003;-54
2023/12/02 16:34:34;;;;;;;6.15;3.72;;;;;;;20.42;34.71;101612.69;16098176;19;131084;-51
2023/12/02 16:39:56;;;;;;;4.23;3.13;;;;;;;20.33;35.03;101616.88;16108398;19;130313;-53
2023/12/02 16:45:21;;;;;;;6.53;3.97;;;;;;;20.23;35.15;101614.72;16106934;19;134688;-51
2023/12/02 16:50:45;;;;;;;5.10;3.43;;;;;;;20.24;35.03;101622.81;16109054;19;131146;-50
2023/12/02 16:56:08;;;;;;;5.22;2.50;;;;;;;20.42;34.75;101624.63;16103595;19;131091;-52
2023/12/02 17:01:42;;;;;;;5.32;2.70;;;;;;;20.56;34.85;101628.00;16109029;19;129637;-54
2023/12/02 17:07:03;;;;;;;5.57;2.53;;;;;;;20.63;34.68;101636.22;16110589;19;131029;-50
2023/12/02 17:12:26;;;;;;;4.30;3.33;;;;;;;20.60;34.10;101636.72;16105279;19;129702;-53
2023/12/02 17:17:49;;;;;;;7.38;5.13;;;;;;;20.41;32.38;101641.56;16122365;19;129975;-51
2023/12/02 17:23:11;;;;;;;5.75;4.65;;;;;;;20.26;32.07;101647.56;16117035;19;130899;-56
2023/12/02 17:28:36;;;;;;;14.98;4.45;;;;;;;20.32;32.21;101642.97;16120971;19;129598;-55
2023/12/02 17:33:58;;;;;;;11.87;3.67;;;;;;;20.73;31.99;101655.09;16100891;19;133006;-51
2023/12/02 17:39:21;;;;;;;7.00;3.60;;;;;;;21.28;32.31;101650.19;16109064;19;130906;-49
2023/12/02 17:44:43;;;;;;;10.18;3.00;;;;;;;21.76;31.67;101648.06;16099790;19;134184;-48
2023/12/02 17:50:07;;;;;;;9.55;3.45;;;;;;;22.01;31.78;101650.47;16102432;19;133631;-49
2023/12/02 17:55:29;;;;;;;8.57;2.97;;;;;;;22.13;31.71;101654.03;16094119;19;130794;-48
2023/12/02 18:00:51;;;;;;;13.05;3.90;;;;;;;22.13;31.98;101661.53;16103500;19;130601;-49
2023/12/02 18:06:13;;;;;;;6.20;3.45;;;;;;;22.04;32.14;101654.69;16099860;19;129888;-51
2023/12/02 18:11:35;;;;;;;8.07;3.53;;;;;;;21.91;32.38;101647.50;16098718;19;131802;-47
2023/12/02 18:16:57;;;;;;;7.13;2.90;;;;;;;21.93;32.52;101650.88;16095801;19;131214;-50
2023/12/02 18:22:19;;;;;;;5.65;3.17;;;;;;;22.17;32.32;101647.91;16094549;19;130442;-50
2023/12/02 18:27:41;;;;;;;5.10;2.80;;;;;;;22.55;31.67;101658.34;16092684;19;130361;-50
2023/12/02 18:33:03;;;;;;;6.80;3.13;;;;;;;22.89;31.25;101654.66;16113354;19;135392;-51
2023/12/02 18:38:26;;;;;;;7.05;3.35;;;;;;;23.08;31.19;101659.94;16109724;19;131746;-49
2023/12/02 18:43:48;;;;;;;7.85;3.53;;;;;;;23.08;31.06;101666.34;16113167;19;129459;-50
2023/12/02 18:49:09;;;;;;;5.22;3.45;;;;;;;23.00;31.07;101677.97;16107377;19;130223;-48
2023/12/02 18:54:32;;;;;;;10.93;3.75;;;;;;;22.79;31.33;101694.41;16108839;19;130539;-52
2023/12/02 18:59:59;;;;;;;8.07;4.03;;;;;;;22.54;31.65;101692.91;16110448;19;131397;-50
2023/12/02 19:05:21;;;;;;;11.57;5.65;;;;;;;22.18;30.73;101703.44;16114670;19;130346;-49
2023/12/02 19:10:43;;;;;;;15.10;5.88;;;;;;;21.83;30.63;101702.50;16105991;19;135088;-49
2023/12/02 19:16:06;;;;;;;12.02;6.28;;;;;;;21.59;30.89;101714.84;16092139;19;130915;-51
2023/12/02 19:21:28;;;;;;;11.70;6.22;;;;;;;21.37;31.23;101709.91;16103970;19;130476;-51
2023/12/02 19:26:50;;;;;;;18.13;5.55;;;;;;;21.17;31.32;101724.25;16109210;19;130162;-46
2023/12/02 19:32:13;;;;;;;10.70;5.10;;;;;;;20.98;31.89;101727.19;16112307;19;130672;-47
2023/12/02 19:37:35;;;;;;;8.98;5.00;;;;;;;20.81;31.90;101727.03;16110338;19;129507;-48
2023/12/02 19:42:58;;;;;;;12.40;5.57;;;;;;;20.65;32.38;101728.56;16116703;19;129442;-50
2023/12/02 19:48:20;;;;;;;11.15;5.07;;;;;;;20.51;32.65;101741.00;16115370;19;129678;-47
2023/12/02 19:53:42;;;;;;;7.93;5.00;;;;;;;20.37;32.81;101744.00;16108746;19;129915;-51
2023/12/02 19:59:04;;;;;;;10.73;4.65;;;;;;;20.25;32.94;101741.22;16116251;19;130482;-53
2023/12/02 20:04:26;;;;;;;9.80;4.93;;;;;;;20.15;32.84;101752.06;16109459;19;131349;-51
2023/12/02 20:09:48;;;;;;;8.85;4.72;;;;;;;20.06;33.20;101753.47;16115806;19;129722;-48
2023/12/02 20:15:10;;;;;;;6.72;4.63;;;;;;;19.96;33.48;101752.06;16111869;19;129969;-47
2023/12/02 20:20:36;;;;;;;10.23;4.68;;;;;;;19.88;33.62;101752.41;16112657;19;128986;-47
2023/12/02 20:26:01;;;;;;;;;;;;;;;19.76;33.79;101765.38;16113548;19;130174;-51
2023/12/02 20:31:23;;;;;;;8.25;4.80;;;;;;;19.71;33.88;101768.00;16110883;19;134382;-50
2023/12/02 20:36:45;;;;;;;8.93;4.88;;;;;;;19.65;33.74;101761.44;16109522;19;129635;-47
2023/12/02 20:42:07;;;;;;;7.18;4.15;;;;;;;19.58;33.72;101761.53;16112736;19;130736;-50
2023/12/02 20:47:29;;;;;;;8.20;4.93;;;;;;;19.52;34.05;101765.25;16105013;19;129668;-48
2023/12/02 20:52:51;;;;;;;6.95;4.85;;;;;;;19.47;33.68;101762.31;16108721;19;129483;-48
2023/12/02 20:58:13;;;;;;;7.97;4.82;;;;;;;19.42;34.04;101767.72;16108193;19;129270;-49
2023/12/02 21:03:35;;;;;;;9.07;4.30;;;;;;;19.38;33.98;101772.91;16110988;19;131232;-46
2023/12/02 21:08:57;;;;;;;7.40;4.22;;;;;;;19.32;34.01;101766.31;16112344;19;129677;-48
2023/12/02 21:14:19;;;;;;;8.60;4.60;;;;;;;19.29;34.33;101758.47;16104675;19;130143;-51
2023/12/02 21:19:41;;;;;;;8.40;4.43;;;;;;;19.24;34.18;101765.78;16106276;19;130398;-47
2023/12/02 21:25:03;;;;;;;7.40;4.88;;;;;;;19.19;34.19;101761.75;16106579;19;129494;-49
2023/12/02 21:30:36;;;;;;;6.43;4.32;;;;;;;19.17;34.51;101754.75;16101745;19;129996;-50
2023/12/02 21:35:59;;;;;;;6.10;4.43;;;;;;;19.11;34.15;101759.28;16106093;19;129577;-48
2023/12/02 21:41:22;;;;;;;7.32;4.68;;;;;;;19.06;34.42;101762.75;16106927;19;130467;-49
2023/12/02 21:46:45;;;;;;;9.50;4.78;;;;;;;19.02;34.44;101769.81;16099019;19;130138;-48
2023/12/02 21:52:25;;;;;;;5.63;4.47;;;;;;;18.99;34.15;101767.50;16100336;19;129823;-48
2023/12/02 21:57:51;;;;;;;5.10;3.95;;;;;;;18.94;34.45;101772.88;16110052;19;129736;-50
2023/12/02 22:03:28;;;;;;;4.18;3.42;;;;;;;18.91;34.19;101776.09;16117256;19;130037;-53
2023/12/02 22:08:50;;;;;;;7.32;3.95;;;;;;;18.86;34.27;101779.56;16121549;19;129900;-49
2023/12/02 22:14:20;;;;;;;4.88;3.90;;;;;;;18.85;34.39;101777.88;16116963;19;130783;-47
2023/12/02 22:19:42;;;;;;;7.57;3.88;;;;;;;18.80;34.42;101771.31;16121014;19;129698;-48
2023/12/02 22:25:05;;;;;;;5.90;3.80;;;;;;;18.76;34.68;101785.63;16118028;19;130034;-52
2023/12/02 22:30:40;;;;;;;5.82;3.50;;;;;;;18.73;34.71;101785.22;16119640;19;130761;-50
2023/12/02 22:36:09;;;;;;;3.90;3.50;;;;;;;18.70;34.63;101803.16;16116481;19;129990;-51
2023/12/02 22:41:31;;;;;;;5.80;3.67;;;;;;;18.66;34.65;101804.69;16115513;19;129957;-46
2023/12/02 22:46:57;;;;;;;4.72;3.72;;;;;;;18.62;34.56;101808.97;16120262;19;129730;-51
2023/12/02 22:52:19;;;;;;;6.28;3.70;;;;;;;18.60;34.77;101817.50;16118213;19;131527;-50
2023/12/02 22:57:41;;;;;;;4.68;3.45;;;;;;;18.57;34.70;101825.44;16118805;19;130081;-47
2023/12/02 23:03:04;;;;;;;4.43;3.47;;;;;;;18.52;34.65;101812.25;16118440;19;133440;-50
2023/12/02 23:08:28;;;;;;;4.20;3.08;;;;;;;18.51;34.83;101831.84;16118043;19;130642;-49
2023/12/02 23:13:51;;;;;;;4.50;3.63;;;;;;;18.48;34.85;101826.75;16113904;19;131173;-50
2023/12/02 23:19:29;;;;;;;5.82;3.00;;;;;;;18.46;34.64;101827.81;16117946;19;129051;-50
2023/12/02 23:24:51;;;;;;;6.18;3.70;;;;;;;18.43;34.72;101830.19;16114900;19;129876;-53
2023/12/02 23:30:13;;;;;;;5.22;3.47;;;;;;;18.39;34.61;101824.25;16116775;19;133540;-46
2023/12/02 23:35:35;;;;;;;4.10;3.25;;;;;;;18.36;34.72;101830.19;16117480;19;129348;-47
2023/12/02 23:40:57;;;;;;;4.15;2.83;;;;;;;18.33;34.64;101836.22;16114866;19;130056;-52
2023/12/02 23:46:25;;;;;;;4.32;3.40;;;;;;;18.31;34.77;101827.28;16113260;19;129656;-48
2023/12/02 23:51:47;;;;;;;4.35;3.10;;;;;;;18.29;35.08;101829.41;16111168;19;130623;-49
2023/12/02 23:57:09;;;;;;;4.80;3.30;;;;;;;18.25;34.99;101823.47;16115776;19;129823;-52
